createdAt,value
2018-10-06T00:00:26.764Z,97.99
2018-10-06T00:02:55.509Z,97.58
2018-10-06T00:05:24.497Z,97.86
2018-10-06T00:07:53.592Z,97.89
2018-10-06T00:10:22.613Z,98.21
2018-10-06T00:12:52.271Z,97.96
2018-10-06T00:15:21.441Z,98.45
2018-10-06T00:17:50.800Z,98.74
2018-10-06T00:20:19.685Z,99.07
2018-10-06T00:22:48.465Z,99.58
2018-10-06T00:25:17.560Z,100.00
2018-10-06T00:27:46.394Z,99.99
2018-10-06T00:30:16.371Z,100.00
2018-10-06T00:32:46.472Z,100.00
2018-10-06T00:35:16.502Z,99.87
2018-10-06T00:37:46.678Z,99.94
2018-10-06T00:40:17.929Z,100.00
2018-10-06T00:42:48.146Z,100.00
2018-10-06T00:45:18.181Z,100.00
2018-10-06T00:47:48.312Z,100.00
2018-10-06T00:50:17.151Z,100.00
2018-10-06T00:52:46.253Z,100.00
2018-10-06T00:55:15.057Z,100.00
2018-10-06T00:57:44.142Z,100.00
2018-10-06T01:00:13.499Z,100.00
2018-10-06T01:02:42.392Z,100.00
2018-10-06T01:05:11.563Z,100.00
2018-10-06T01:07:40.698Z,100.00
2018-10-06T01:10:09.582Z,100.00
2018-10-06T01:12:38.694Z,100.00
2018-10-06T01:15:07.744Z,100.00
2018-10-06T01:17:36.559Z,100.00
2018-10-06T01:20:05.932Z,100.00
2018-10-06T01:22:34.743Z,100.00
2018-10-06T01:25:03.547Z,100.00
2018-10-06T01:27:32.626Z,100.00
2018-10-06T01:30:01.483Z,100.00
2018-10-06T01:32:30.316Z,100.00
2018-10-06T01:34:59.508Z,100.00
2018-10-06T01:37:28.351Z,100.00
2018-10-06T01:39:57.117Z,100.00
2018-10-06T01:42:26.058Z,100.00
2018-10-06T01:44:54.991Z,100.00
2018-10-06T01:47:24.509Z,100.00
2018-10-06T01:49:53.418Z,100.00
2018-10-06T01:52:23.305Z,100.00
2018-10-06T01:54:52.152Z,100.00
2018-10-06T01:57:21.010Z,100.00
2018-10-06T01:59:49.803Z,100.00
2018-10-06T02:02:18.949Z,100.00
2018-10-06T02:04:47.776Z,100.00
2018-10-06T02:07:16.765Z,100.00
2018-10-06T02:09:45.843Z,100.00
2018-10-06T02:12:14.935Z,100.00
2018-10-06T02:14:44.015Z,100.00
2018-10-06T02:17:12.776Z,100.00
2018-10-06T02:19:41.851Z,100.00
2018-10-06T02:22:10.666Z,100.00
2018-10-06T02:24:39.402Z,100.00
2018-10-06T02:27:08.214Z,100.00
2018-10-06T02:29:37.234Z,100.00
2018-10-06T02:32:06.290Z,100.00
2018-10-06T02:34:35.138Z,100.00
2018-10-06T02:37:03.941Z,100.00
2018-10-06T02:39:33.264Z,100.00
2018-10-06T02:42:02.792Z,100.00
2018-10-06T02:44:31.592Z,100.00
2018-10-06T02:47:00.403Z,100.00
2018-10-06T02:49:29.217Z,100.00
2018-10-06T02:51:58.407Z,100.00
2018-10-06T02:54:27.450Z,100.00
2018-10-06T02:56:56.596Z,100.00
2018-10-06T02:59:25.983Z,100.00
2018-10-06T03:01:55.159Z,100.00
2018-10-06T03:04:24.573Z,100.00
2018-10-06T03:06:53.373Z,100.00
2018-10-06T03:09:22.140Z,100.00
2018-10-06T03:11:51.043Z,100.00
2018-10-06T03:14:20.556Z,100.00
2018-10-06T03:16:49.352Z,100.00
2018-10-06T03:19:18.184Z,100.00
2018-10-06T03:21:47.037Z,100.00
2018-10-06T03:24:16.240Z,100.00
2018-10-06T03:26:45.217Z,100.00
2018-10-06T03:29:14.256Z,100.00
2018-10-06T03:31:43.730Z,100.00
2018-10-06T03:34:12.788Z,100.00
2018-10-06T03:36:41.990Z,100.00
2018-10-06T03:39:10.772Z,100.00
2018-10-06T03:41:40.225Z,100.00
2018-10-06T03:44:09.040Z,100.00
2018-10-06T03:46:38.208Z,100.00
2018-10-06T03:49:07.599Z,100.00
2018-10-06T03:51:37.136Z,100.00
2018-10-06T03:54:06.431Z,100.00
2018-10-06T03:56:35.527Z,100.00
2018-10-06T03:59:04.391Z,100.00
2018-10-06T04:01:33.155Z,100.00
2018-10-06T04:04:02.583Z,100.00
2018-10-06T04:06:31.415Z,100.00
2018-10-06T04:09:00.782Z,100.00
2018-10-06T04:11:30.858Z,100.00
2018-10-06T04:13:59.880Z,100.00
2018-10-06T04:16:28.675Z,100.00
2018-10-06T04:18:57.856Z,100.00
2018-10-06T04:21:30.001Z,100.00
2018-10-06T04:23:59.026Z,100.00
2018-10-06T04:26:27.817Z,100.00
2018-10-06T04:28:56.584Z,100.00
2018-10-06T04:31:25.350Z,100.00
2018-10-06T04:33:54.173Z,100.00
2018-10-06T04:36:23.026Z,100.00
2018-10-06T04:38:52.048Z,100.00
2018-10-06T04:41:20.883Z,100.00
2018-10-06T04:43:49.670Z,100.00
2018-10-06T04:46:18.482Z,100.00
2018-10-06T04:48:47.828Z,100.00
2018-10-06T04:51:16.639Z,100.00
2018-10-06T04:53:45.647Z,100.00
2018-10-06T04:56:14.701Z,100.00
2018-10-06T04:58:43.855Z,100.00
2018-10-06T05:01:12.601Z,100.00
2018-10-06T05:03:41.756Z,100.00
2018-10-06T05:06:11.244Z,100.00
2018-10-06T05:08:39.983Z,100.00
2018-10-06T05:11:08.866Z,100.00
2018-10-06T05:13:37.827Z,100.00
2018-10-06T05:16:06.854Z,100.00
2018-10-06T05:18:35.909Z,100.00
2018-10-06T05:21:06.160Z,100.00
2018-10-06T05:23:35.311Z,100.00
2018-10-06T05:26:04.054Z,100.00
2018-10-06T05:28:33.073Z,100.00
2018-10-06T05:31:02.038Z,100.00
2018-10-06T05:33:31.318Z,100.00
2018-10-06T05:36:00.231Z,100.00
2018-10-06T05:38:29.231Z,100.00
2018-10-06T05:40:58.158Z,100.00
2018-10-06T05:43:27.075Z,100.00
2018-10-06T05:45:55.931Z,100.00
2018-10-06T05:48:25.413Z,100.00
2018-10-06T05:50:54.266Z,100.00
2018-10-06T05:53:23.414Z,100.00
2018-10-06T05:55:52.399Z,100.00
2018-10-06T05:58:21.216Z,100.00
2018-10-06T06:00:50.285Z,100.00
2018-10-06T06:03:19.486Z,100.00
2018-10-06T06:05:48.272Z,100.00
2018-10-06T06:08:17.169Z,100.00
2018-10-06T06:10:46.026Z,100.00
2018-10-06T06:13:15.649Z,100.00
2018-10-06T06:15:44.852Z,100.00
2018-10-06T06:18:13.594Z,100.00
2018-10-06T06:20:42.589Z,100.00
2018-10-06T06:23:11.473Z,100.00
2018-10-06T06:25:40.335Z,100.00
2018-10-06T06:28:09.432Z,100.00
2018-10-06T06:30:38.312Z,100.00
2018-10-06T06:33:07.317Z,100.00
2018-10-06T06:35:36.990Z,100.00
2018-10-06T06:38:06.185Z,100.00
2018-10-06T06:40:35.564Z,100.00
2018-10-06T06:43:04.564Z,100.00
2018-10-06T06:45:33.398Z,100.00
2018-10-06T06:48:02.184Z,100.00
2018-10-06T06:50:31.273Z,100.00
2018-10-06T06:53:00.077Z,100.00
2018-10-06T06:55:28.874Z,100.00
2018-10-06T06:57:58.298Z,100.00
2018-10-06T07:00:27.126Z,100.00
2018-10-06T07:02:55.905Z,100.00
2018-10-06T07:05:25.638Z,100.00
2018-10-06T07:07:56.009Z,100.00
2018-10-06T07:10:25.620Z,100.00
2018-10-06T07:12:54.611Z,100.00
2018-10-06T07:15:23.682Z,100.00
2018-10-06T07:17:52.562Z,100.00
2018-10-06T07:20:21.440Z,100.00
2018-10-06T07:22:50.606Z,100.00
2018-10-06T07:25:20.543Z,100.00
2018-10-06T07:27:49.512Z,100.00
2018-10-06T07:30:18.705Z,100.00
2018-10-06T07:32:48.469Z,100.00
2018-10-06T07:35:17.617Z,100.00
2018-10-06T07:37:46.821Z,100.00
2018-10-06T07:40:15.707Z,100.00
2018-10-06T07:42:44.502Z,100.00
2018-10-06T07:45:13.864Z,100.00
2018-10-06T07:47:43.446Z,100.00
2018-10-06T07:50:13.128Z,100.00
2018-10-06T07:52:42.002Z,100.00
2018-10-06T07:55:12.510Z,100.00
2018-10-06T07:57:42.059Z,100.00
2018-10-06T08:00:10.965Z,100.00
2018-10-06T08:02:40.942Z,100.00
2018-10-06T08:05:10.117Z,100.00
2018-10-06T08:07:39.975Z,100.00
2018-10-06T08:10:10.034Z,100.00
2018-10-06T08:12:39.249Z,100.00
2018-10-06T08:15:08.180Z,100.00
2018-10-06T08:17:38.129Z,100.00
2018-10-06T08:20:06.885Z,100.00
2018-10-06T08:22:35.948Z,100.00
2018-10-06T08:25:05.656Z,100.00
2018-10-06T08:27:34.518Z,100.00
2018-10-06T08:30:03.381Z,100.00
2018-10-06T08:32:35.907Z,100.00
2018-10-06T08:35:04.783Z,100.00
2018-10-06T08:37:33.904Z,100.00
2018-10-06T08:40:03.098Z,100.00
2018-10-06T08:42:32.188Z,100.00
2018-10-06T08:45:01.019Z,100.00
2018-10-06T08:47:30.002Z,100.00
2018-10-06T08:49:58.824Z,100.00
2018-10-06T08:52:28.030Z,100.00
2018-10-06T08:54:56.836Z,100.00
2018-10-06T08:57:25.684Z,100.00
2018-10-06T08:59:55.060Z,100.00
2018-10-06T09:02:24.120Z,100.00
2018-10-06T09:04:53.031Z,100.00
2018-10-06T09:07:21.875Z,100.00
2018-10-06T09:09:50.764Z,100.00
2018-10-06T09:12:19.900Z,100.00
2018-10-06T09:14:49.330Z,100.00
2018-10-06T09:17:18.522Z,100.00
2018-10-06T09:19:47.339Z,100.00
2018-10-06T09:22:16.229Z,100.00
2018-10-06T09:24:45.404Z,100.00
2018-10-06T09:27:14.235Z,100.00
2018-10-06T09:29:43.380Z,100.00
2018-10-06T09:32:12.276Z,100.00
2018-10-06T09:34:41.117Z,100.00
2018-10-06T09:37:10.714Z,100.00
2018-10-06T09:39:39.597Z,99.86
2018-10-06T09:42:09.120Z,96.98
2018-10-06T09:44:38.227Z,96.32
2018-10-06T09:47:07.158Z,95.47
2018-10-06T09:49:35.920Z,94.55
2018-10-06T09:52:04.766Z,93.97
2018-10-06T09:54:33.947Z,93.35
2018-10-06T09:57:02.722Z,93.33
2018-10-06T09:59:32.022Z,92.06
2018-10-06T10:03:07.928Z,90.14
2018-10-06T10:05:41.977Z,88.99
2018-10-06T10:08:11.427Z,86.91
2018-10-06T10:10:40.638Z,85.94
2018-10-06T10:13:09.787Z,84.25
2018-10-06T10:15:38.623Z,85.53
2018-10-06T10:18:07.509Z,82.05
2018-10-06T10:20:36.606Z,80.90
2018-10-06T10:23:05.478Z,80.64
2018-10-06T10:25:34.139Z,80.79
2018-10-06T10:28:03.522Z,77.58
2018-10-06T10:30:32.682Z,77.36
2018-10-06T10:33:01.473Z,74.65
2018-10-06T10:35:30.250Z,73.00
2018-10-06T10:37:59.020Z,73.76
2018-10-06T10:40:28.102Z,73.70
2018-10-06T10:42:57.617Z,70.76
2018-10-06T10:45:26.379Z,69.78
2018-10-06T10:47:55.518Z,67.79
2018-10-06T10:50:24.577Z,67.58
2018-10-06T10:52:53.785Z,64.64
2018-10-06T10:55:22.885Z,66.46
2018-10-06T10:57:52.058Z,66.32
2018-10-06T11:00:21.087Z,64.16
2018-10-06T11:02:49.881Z,64.06
2018-10-06T11:05:18.955Z,62.78
2018-10-06T11:07:48.028Z,61.86
2018-10-06T11:10:17.207Z,61.11
2018-10-06T11:12:45.967Z,60.91
2018-10-06T11:15:14.761Z,60.36
2018-10-06T11:17:43.665Z,59.64
2018-10-06T11:20:12.655Z,58.73
2018-10-06T11:22:41.445Z,57.22
2018-10-06T11:25:10.548Z,57.55
2018-10-06T11:27:39.600Z,56.65
2018-10-06T11:30:08.805Z,55.20
2018-10-06T11:32:37.660Z,54.42
2018-10-06T11:35:06.720Z,54.91
2018-10-06T11:37:36.108Z,55.08
2018-10-06T11:40:05.221Z,55.33
2018-10-06T11:42:34.059Z,54.08
2018-10-06T11:45:03.111Z,53.08
2018-10-06T11:47:31.955Z,53.20
2018-10-06T11:50:01.229Z,53.56
2018-10-06T11:52:29.923Z,52.48
2018-10-06T11:54:58.795Z,52.50
2018-10-06T11:57:28.303Z,52.07
2018-10-06T11:59:57.362Z,51.56
2018-10-06T12:02:26.197Z,50.57
2018-10-06T12:04:55.400Z,50.64
2018-10-06T12:07:24.418Z,50.41
2018-10-06T12:09:53.520Z,50.02
2018-10-06T12:12:22.742Z,51.04
2018-10-06T12:14:51.976Z,51.09
2018-10-06T12:17:20.820Z,49.44
2018-10-06T12:19:49.947Z,48.61
2018-10-06T12:22:18.757Z,49.58
2018-10-06T12:24:47.940Z,49.04
2018-10-06T12:27:17.108Z,49.25
2018-10-06T12:29:46.091Z,50.80
2018-10-06T12:32:15.221Z,48.93
2018-10-06T12:34:44.279Z,48.71
2018-10-06T12:37:13.127Z,48.67
2018-10-06T12:39:41.959Z,50.13
2018-10-06T12:42:11.381Z,49.46
2018-10-06T12:44:40.164Z,47.90
2018-10-06T12:47:09.039Z,48.96
2018-10-06T12:49:37.843Z,49.34
2018-10-06T12:52:07.094Z,49.24
2018-10-06T12:54:36.255Z,47.81
2018-10-06T12:57:05.268Z,48.44
2018-10-06T12:59:34.022Z,49.67
2018-10-06T13:02:03.134Z,48.23
2018-10-06T13:04:31.879Z,48.36
2018-10-06T13:07:00.700Z,48.20
2018-10-06T13:09:32.484Z,47.84
2018-10-06T13:12:01.291Z,47.58
2018-10-06T13:14:30.058Z,48.14
2018-10-06T13:16:58.883Z,47.02
2018-10-06T13:19:28.453Z,47.85
2018-10-06T13:21:57.455Z,46.95
2018-10-06T13:24:26.249Z,48.20
2018-10-06T13:26:55.403Z,47.89
2018-10-06T13:29:24.617Z,46.95
2018-10-06T13:31:53.454Z,46.82
2018-10-06T13:34:22.237Z,47.73
2018-10-06T13:36:51.425Z,47.38
2018-10-06T13:39:20.146Z,48.68
2018-10-06T13:41:49.258Z,48.58
2018-10-06T13:44:18.332Z,48.80
2018-10-06T13:46:47.153Z,48.07
2018-10-06T13:49:16.309Z,47.51
2018-10-06T13:51:45.426Z,47.87
2018-10-06T13:54:14.326Z,46.71
2018-10-06T13:56:43.654Z,47.89
2018-10-06T13:59:12.407Z,48.35
2018-10-06T14:01:41.530Z,47.70
2018-10-06T14:04:10.250Z,48.45
2018-10-06T14:06:39.156Z,48.88
2018-10-06T14:09:08.894Z,48.69
2018-10-06T14:11:38.061Z,49.55
2018-10-06T14:14:06.970Z,49.64
2018-10-06T14:16:36.137Z,50.45
2018-10-06T14:19:05.293Z,50.94
2018-10-06T14:21:34.127Z,48.75
2018-10-06T14:24:03.153Z,48.65
2018-10-06T14:26:32.075Z,50.11
2018-10-06T14:29:01.423Z,49.78
2018-10-06T14:31:30.233Z,48.77
2018-10-06T14:34:05.702Z,50.56
2018-10-06T14:36:34.685Z,49.70
2018-10-06T14:39:04.166Z,50.72
2018-10-06T14:41:33.057Z,50.92
2018-10-06T14:44:01.853Z,51.00
2018-10-06T14:46:30.846Z,51.26
2018-10-06T14:49:00.079Z,51.22
2018-10-06T14:51:29.119Z,52.06
2018-10-06T14:53:57.883Z,51.67
2018-10-06T14:56:26.899Z,52.30
2018-10-06T14:58:56.552Z,52.89
2018-10-06T15:01:25.653Z,53.82
2018-10-06T15:03:54.454Z,53.45
2018-10-06T15:06:23.228Z,54.42
2018-10-06T15:08:52.045Z,55.32
2018-10-06T15:11:20.850Z,55.80
2018-10-06T15:13:49.613Z,56.12
2018-10-06T15:16:18.743Z,57.60
2018-10-06T15:18:47.875Z,58.65
2018-10-06T15:21:17.494Z,59.06
2018-10-06T15:23:46.363Z,59.36
2018-10-06T15:26:15.499Z,60.07
2018-10-06T15:28:44.612Z,60.89
2018-10-06T15:31:13.724Z,60.57
2018-10-06T15:33:42.600Z,60.81
2018-10-06T15:36:11.451Z,61.51
2018-10-06T15:38:41.023Z,61.48
2018-10-06T15:41:10.736Z,62.17
2018-10-06T15:43:40.487Z,62.26
2018-10-06T15:46:10.827Z,63.07
2018-10-06T15:48:39.702Z,63.73
2018-10-06T15:51:09.498Z,64.33
2018-10-06T15:53:38.338Z,64.79
2018-10-06T15:56:07.139Z,64.50
2018-10-06T15:58:38.360Z,65.12
2018-10-06T16:01:07.879Z,65.63
2018-10-06T16:03:36.911Z,67.28
2018-10-06T16:06:05.694Z,67.56
2018-10-06T16:08:34.544Z,68.33
2018-10-06T16:11:03.347Z,68.74
2018-10-06T16:13:32.087Z,69.84
2018-10-06T16:16:00.910Z,70.32
2018-10-06T16:18:29.683Z,70.40
2018-10-06T16:20:58.681Z,71.05
2018-10-06T16:23:27.825Z,72.22
2018-10-06T16:25:56.656Z,72.05
2018-10-06T16:28:25.431Z,72.97
2018-10-06T16:30:54.556Z,73.14
2018-10-06T16:33:23.649Z,74.01
2018-10-06T16:35:52.723Z,74.27
2018-10-06T16:38:22.966Z,74.94
2018-10-06T16:40:51.767Z,75.90
2018-10-06T16:43:20.547Z,75.81
2018-10-06T16:45:49.890Z,76.40
2018-10-06T16:48:19.381Z,76.69
2018-10-06T16:50:48.541Z,76.69
2018-10-06T16:53:17.674Z,76.70
2018-10-06T16:55:46.491Z,77.21
2018-10-06T16:58:15.261Z,77.73
2018-10-06T17:00:50.454Z,78.40
2018-10-06T17:03:19.676Z,79.13
2018-10-06T17:05:48.532Z,79.03
2018-10-06T17:08:17.339Z,79.14
2018-10-06T17:10:46.190Z,79.30
2018-10-06T17:13:15.009Z,79.12
2018-10-06T17:15:44.065Z,80.05
2018-10-06T17:18:12.859Z,79.78
2018-10-06T17:20:41.703Z,80.70
2018-10-06T17:23:10.830Z,80.07
2018-10-06T17:25:39.622Z,80.27
2018-10-06T17:28:08.846Z,80.86
2018-10-06T17:30:38.522Z,80.77
2018-10-06T17:33:07.879Z,81.06
2018-10-06T17:35:37.075Z,80.83
2018-10-06T17:38:05.980Z,80.68
2018-10-06T17:40:35.023Z,80.93
2018-10-06T17:43:03.898Z,81.60
2018-10-06T17:45:33.120Z,81.59
2018-10-06T17:48:02.126Z,82.11
2018-10-06T17:50:31.823Z,82.88
2018-10-06T17:53:01.099Z,82.53
2018-10-06T17:55:30.271Z,82.86
2018-10-06T17:57:59.872Z,83.86
2018-10-06T18:00:28.737Z,84.47
2018-10-06T18:02:58.202Z,84.18
2018-10-06T18:05:27.198Z,85.61
2018-10-06T18:07:56.583Z,85.19
2018-10-06T18:10:25.369Z,85.52
2018-10-06T18:12:54.148Z,85.84
2018-10-06T18:15:24.871Z,86.42
2018-10-06T18:17:53.843Z,86.67
2018-10-06T18:20:22.726Z,86.61
2018-10-06T18:22:52.881Z,86.69
2018-10-06T18:25:22.127Z,87.62
2018-10-06T18:27:51.048Z,87.28
2018-10-06T18:30:20.740Z,87.84
2018-10-06T18:32:50.035Z,88.14
2018-10-06T18:35:20.083Z,88.36
2018-10-06T18:37:49.013Z,89.15
2018-10-06T18:40:18.274Z,89.08
2018-10-06T18:42:47.273Z,89.41
2018-10-06T18:45:16.467Z,89.76
2018-10-06T18:47:46.136Z,90.91
2018-10-06T18:50:15.031Z,91.15
2018-10-06T18:52:45.313Z,91.17
2018-10-06T18:55:14.509Z,91.72
2018-10-06T18:57:44.434Z,91.87
2018-10-06T19:00:13.344Z,92.70
2018-10-06T19:02:42.277Z,93.47
2018-10-06T19:05:11.855Z,94.13
2018-10-06T19:07:41.800Z,95.85
2018-10-06T19:10:11.826Z,96.86
2018-10-06T19:12:40.960Z,97.17
2018-10-06T19:15:10.198Z,98.29
2018-10-06T19:17:39.371Z,97.77
2018-10-06T19:20:08.238Z,99.52
2018-10-06T19:22:37.215Z,100.00
2018-10-06T19:25:06.567Z,100.00
2018-10-06T19:27:35.476Z,100.00
2018-10-06T19:30:04.399Z,100.00
2018-10-06T19:32:33.222Z,100.00
2018-10-06T19:35:02.420Z,100.00
2018-10-06T19:37:31.453Z,100.00
2018-10-06T19:40:00.302Z,100.00
2018-10-06T19:42:29.067Z,100.00
2018-10-06T19:44:58.231Z,100.00
2018-10-06T19:47:27.065Z,100.00
2018-10-06T19:49:56.510Z,100.00
2018-10-06T19:52:25.313Z,100.00
2018-10-06T19:54:56.203Z,100.00
2018-10-06T19:57:26.014Z,100.00
2018-10-06T19:59:55.283Z,100.00
2018-10-06T20:02:24.978Z,100.00
2018-10-06T20:04:53.818Z,100.00
2018-10-06T20:07:22.982Z,100.00
2018-10-06T20:09:52.472Z,100.00
2018-10-06T20:12:23.231Z,100.00
2018-10-06T20:14:53.295Z,100.00
2018-10-06T20:17:23.274Z,100.00
2018-10-06T20:19:52.241Z,100.00
2018-10-06T20:22:22.212Z,100.00
2018-10-06T20:24:51.076Z,100.00
2018-10-06T20:27:20.129Z,100.00
2018-10-06T20:29:49.322Z,100.00
2018-10-06T20:32:18.491Z,100.00
2018-10-06T20:34:47.509Z,100.00
2018-10-06T20:37:16.659Z,100.00
2018-10-06T20:39:46.096Z,100.00
2018-10-06T20:42:16.088Z,100.00
2018-10-06T20:44:45.012Z,100.00
2018-10-06T20:47:13.791Z,100.00
2018-10-06T20:49:42.577Z,100.00
2018-10-06T20:52:11.390Z,100.00
2018-10-06T20:54:40.569Z,100.00
2018-10-06T20:57:09.456Z,100.00
2018-10-06T20:59:38.532Z,100.00
2018-10-06T21:02:07.766Z,100.00
2018-10-06T21:04:36.765Z,100.00
2018-10-06T21:07:06.023Z,100.00
2018-10-06T21:09:35.420Z,100.00
2018-10-06T21:12:04.390Z,100.00
2018-10-06T21:14:33.729Z,100.00
2018-10-06T21:17:02.914Z,100.00
2018-10-06T21:19:32.030Z,100.00
2018-10-06T21:22:01.656Z,100.00
2018-10-06T21:24:30.575Z,100.00
2018-10-06T21:27:00.917Z,100.00
2018-10-06T21:29:30.176Z,100.00
2018-10-06T21:31:59.112Z,100.00
2018-10-06T21:34:28.795Z,100.00
2018-10-06T21:36:57.988Z,100.00
2018-10-06T21:39:27.094Z,100.00
2018-10-06T21:41:55.863Z,100.00
2018-10-06T21:44:24.702Z,100.00
2018-10-06T21:46:53.591Z,100.00
2018-10-06T21:49:22.758Z,100.00
2018-10-06T21:51:52.661Z,100.00
2018-10-06T21:54:22.848Z,100.00
2018-10-06T21:56:52.423Z,100.00
2018-10-06T21:59:21.277Z,100.00
2018-10-06T22:01:50.122Z,100.00
2018-10-06T22:04:19.236Z,100.00
2018-10-06T22:06:48.297Z,100.00
2018-10-06T22:09:18.451Z,100.00
2018-10-06T22:11:47.523Z,100.00
2018-10-06T22:14:16.877Z,100.00
2018-10-06T22:16:45.872Z,100.00
2018-10-06T22:19:14.777Z,100.00
2018-10-06T22:21:43.569Z,100.00
2018-10-06T22:24:12.639Z,100.00
2018-10-06T22:26:41.870Z,100.00
2018-10-06T22:29:10.755Z,100.00
2018-10-06T22:31:40.242Z,100.00
2018-10-06T22:34:09.318Z,100.00
2018-10-06T22:36:38.673Z,100.00
2018-10-06T22:39:08.819Z,100.00
2018-10-06T22:41:37.993Z,100.00
2018-10-06T22:44:07.208Z,100.00
2018-10-06T22:46:36.110Z,100.00
2018-10-06T22:49:05.167Z,100.00
2018-10-06T22:51:34.312Z,100.00
2018-10-06T22:54:03.097Z,100.00
2018-10-06T22:56:31.950Z,100.00
2018-10-06T22:59:00.770Z,100.00
2018-10-06T23:01:31.316Z,100.00
2018-10-06T23:04:00.188Z,100.00
2018-10-06T23:06:29.104Z,100.00
2018-10-06T23:08:58.161Z,100.00
2018-10-06T23:11:26.970Z,100.00
2018-10-06T23:13:55.853Z,100.00
2018-10-06T23:16:24.712Z,100.00
2018-10-06T23:18:53.502Z,100.00
2018-10-06T23:21:22.654Z,100.00
2018-10-06T23:23:51.531Z,100.00
2018-10-06T23:26:20.629Z,100.00
2018-10-06T23:28:49.743Z,100.00
2018-10-06T23:31:18.766Z,100.00
2018-10-06T23:33:47.624Z,100.00
2018-10-06T23:36:16.416Z,100.00
2018-10-06T23:38:45.199Z,100.00
2018-10-06T23:41:14.276Z,100.00
2018-10-06T23:43:43.457Z,100.00
2018-10-06T23:46:12.444Z,100.00
2018-10-06T23:48:41.332Z,100.00
2018-10-06T23:51:10.226Z,100.00
2018-10-06T23:53:39.552Z,100.00
2018-10-06T23:56:09.006Z,100.00
2018-10-06T23:58:38.081Z,100.00
